createdAt,value
2023-05-04T00:00:11.427Z,100668.91
2023-05-04T00:00:23.813Z,100674.28
2023-05-04T00:00:35.451Z,100669.09
2023-05-04T00:00:47.129Z,100662.72
2023-05-04T00:00:58.837Z,100663.72
2023-05-04T00:01:10.497Z,100665.78
2023-05-04T00:01:22.276Z,100667.22
2023-05-04T00:01:33.978Z,100663.91
2023-05-04T00:01:45.640Z,100669.91
2023-05-04T00:01:57.325Z,100670.97
2023-05-04T00:02:09.024Z,100664.78
2023-05-04T00:02:20.813Z,100666.59
2023-05-04T00:02:32.655Z,100670.13
2023-05-04T00:02:44.499Z,100665.59
2023-05-04T00:02:56.372Z,100669.28
2023-05-04T00:03:08.208Z,100664.78
2023-05-04T00:03:20.041Z,100673.63
2023-05-04T00:03:32.078Z,100669.28
2023-05-04T00:03:43.925Z,100662.28
2023-05-04T00:03:55.873Z,100664.97
2023-05-04T00:04:07.940Z,100663.91
2023-05-04T00:04:20.255Z,100663.91
2023-05-04T00:04:32.062Z,100664.13
2023-05-04T00:04:43.815Z,100659.78
2023-05-04T00:04:55.536Z,100663.91
2023-05-04T00:05:07.681Z,100669.28
2023-05-04T00:05:19.387Z,100662.28
2023-05-04T00:05:31.140Z,100666.81
2023-05-04T00:05:42.879Z,100664.97
2023-05-04T00:05:58.358Z,100674.88
2023-05-04T00:06:10.072Z,100662.47
2023-05-04T00:06:21.747Z,100667.00
2023-05-04T00:06:33.431Z,100666.81
2023-05-04T00:06:45.038Z,100667.00
2023-05-04T00:06:56.689Z,100666.00
2023-05-04T00:07:08.435Z,100664.31
2023-05-04T00:07:20.379Z,100664.31
2023-05-04T00:07:32.110Z,100661.63
2023-05-04T00:07:43.774Z,100666.38
2023-05-04T00:07:55.389Z,100667.00
2023-05-04T00:08:07.064Z,100664.50
2023-05-04T00:08:18.783Z,100669.69
2023-05-04T00:08:30.468Z,100658.72
2023-05-04T00:08:42.086Z,100660.81
2023-05-04T00:08:53.884Z,100667.19
2023-05-04T00:09:05.796Z,100663.69
2023-05-04T00:09:17.434Z,100655.63
2023-05-04T00:09:29.161Z,100669.06
2023-05-04T00:09:40.834Z,100662.06
2023-05-04T00:09:52.610Z,100670.91
2023-05-04T00:10:05.123Z,100671.94
2023-05-04T00:10:17.120Z,100670.91
2023-05-04T00:10:28.791Z,100662.06
2023-05-04T00:10:40.519Z,100662.25
2023-05-04T00:10:52.184Z,100654.78
2023-05-04T00:11:03.862Z,100663.06
2023-05-04T00:11:15.663Z,100668.44
2023-05-04T00:11:27.500Z,100667.59
2023-05-04T00:11:39.361Z,100664.91
2023-05-04T00:11:51.037Z,100662.44
2023-05-04T00:12:02.741Z,100666.78
2023-05-04T00:12:14.414Z,100661.41
2023-05-04T00:12:26.108Z,100660.59
2023-05-04T00:12:38.109Z,100661.59
2023-05-04T00:12:49.854Z,100662.44
2023-05-04T00:13:01.623Z,100665.09
2023-05-04T00:13:13.325Z,100665.09
2023-05-04T00:13:25.174Z,100662.66
2023-05-04T00:13:36.902Z,100661.59
2023-05-04T00:13:48.571Z,100666.16
2023-05-04T00:14:00.312Z,100660.78
2023-05-04T00:14:11.988Z,100666.16
2023-05-04T00:14:23.737Z,100662.66
2023-05-04T00:14:35.603Z,100663.47
2023-05-04T00:14:47.259Z,100662.66
2023-05-04T00:14:59.119Z,100658.91
2023-05-04T00:15:10.884Z,100662.66
2023-05-04T00:15:22.714Z,100659.13
2023-05-04T00:15:34.528Z,100659.97
2023-05-04T00:15:46.222Z,100657.47
2023-05-04T00:15:58.005Z,100666.97
2023-05-04T00:16:11.002Z,100655.81
2023-05-04T00:16:22.924Z,100654.16
2023-05-04T00:16:34.815Z,100658.28
2023-05-04T00:16:46.483Z,100665.34
2023-05-04T00:16:58.195Z,100660.97
2023-05-04T00:17:09.922Z,100661.78
2023-05-04T00:17:21.625Z,100659.13
2023-05-04T00:17:33.437Z,100662.00
2023-05-04T00:17:45.150Z,100666.34
2023-05-04T00:17:56.932Z,100660.16
2023-05-04T00:18:08.703Z,100661.19
2023-05-04T00:18:20.376Z,100653.97
2023-05-04T00:18:32.240Z,100659.13
2023-05-04T00:18:43.821Z,100660.97
2023-05-04T00:18:55.557Z,100661.19
2023-05-04T00:19:07.196Z,100668.19
2023-05-04T00:19:18.904Z,100656.66
2023-05-04T00:19:30.548Z,100668.19
2023-05-04T00:19:42.421Z,100660.97
2023-05-04T00:19:54.089Z,100659.34
2023-05-04T00:20:07.301Z,100663.03
2023-05-04T00:20:19.171Z,100659.53
2023-05-04T00:20:30.932Z,100657.88
2023-05-04T00:20:42.657Z,100659.34
2023-05-04T00:20:55.695Z,100657.66
2023-05-04T00:21:07.517Z,100663.88
2023-05-04T00:21:19.183Z,100663.03
2023-05-04T00:21:30.830Z,100657.66
2023-05-04T00:21:42.457Z,100661.38
2023-05-04T00:21:54.110Z,100661.19
2023-05-04T00:22:06.108Z,100656.84
2023-05-04T00:22:17.781Z,100661.38
2023-05-04T00:22:29.454Z,100656.84
2023-05-04T00:22:41.128Z,100660.34
2023-05-04T00:22:52.870Z,100659.34
2023-05-04T00:23:04.561Z,100657.88
2023-05-04T00:23:16.311Z,100660.34
2023-05-04T00:23:28.009Z,100659.72
2023-05-04T00:23:39.744Z,100669.44
2023-05-04T00:23:54.484Z,100658.69
2023-05-04T00:24:06.595Z,100660.56
2023-05-04T00:24:18.365Z,100660.56
2023-05-04T00:24:30.085Z,100660.56
2023-05-04T00:24:41.815Z,100662.19
2023-05-04T00:24:53.533Z,100660.56
2023-05-04T00:25:06.215Z,100652.88
2023-05-04T00:25:18.087Z,100658.88
2023-05-04T00:25:29.958Z,100662.19
2023-05-04T00:25:41.557Z,100657.88
2023-05-04T00:25:53.368Z,100663.25
2023-05-04T00:26:05.248Z,100654.56
2023-05-04T00:26:16.946Z,100658.88
2023-05-04T00:26:29.310Z,100658.88
2023-05-04T00:26:41.279Z,100663.63
2023-05-04T00:26:52.933Z,100658.88
2023-05-04T00:27:05.001Z,100662.38
2023-05-04T00:27:16.967Z,100656.22
2023-05-04T00:27:28.729Z,100659.72
2023-05-04T00:27:40.432Z,100658.06
2023-05-04T00:27:52.117Z,100659.09
2023-05-04T00:28:03.960Z,100656.41
2023-05-04T00:28:15.643Z,100657.44
2023-05-04T00:28:27.764Z,100657.25
2023-05-04T00:28:39.795Z,100655.56
2023-05-04T00:28:51.540Z,100659.09
2023-05-04T00:29:03.279Z,100657.44
2023-05-04T00:29:14.924Z,100658.25
2023-05-04T00:29:26.533Z,100656.63
2023-05-04T00:29:38.217Z,100656.63
2023-05-04T00:29:49.886Z,100653.94
2023-05-04T00:30:01.689Z,100653.94
2023-05-04T00:30:13.944Z,100659.28
2023-05-04T00:30:25.637Z,100657.44
2023-05-04T00:30:37.500Z,100651.25
2023-05-04T00:30:49.126Z,100652.06
2023-05-04T00:31:00.866Z,100656.63
2023-05-04T00:31:12.622Z,100668.16
2023-05-04T00:31:24.441Z,100653.94
2023-05-04T00:31:36.237Z,100656.81
2023-05-04T00:31:47.990Z,100650.44
2023-05-04T00:31:59.746Z,100654.94
2023-05-04T00:32:11.462Z,100649.56
2023-05-04T00:32:23.316Z,100659.28
2023-05-04T00:32:35.091Z,100653.09
2023-05-04T00:32:46.941Z,100658.47
2023-05-04T00:32:58.584Z,100658.47
2023-05-04T00:33:10.384Z,100646.88
2023-05-04T00:33:22.784Z,100646.88
2023-05-04T00:33:34.437Z,100654.13
2023-05-04T00:33:46.230Z,100656.81
2023-05-04T00:33:57.882Z,100656.81
2023-05-04T00:34:09.823Z,100652.47
2023-05-04T00:34:21.508Z,100653.28
2023-05-04T00:34:33.289Z,100649.78
2023-05-04T00:34:44.950Z,100653.28
2023-05-04T00:34:56.666Z,100657.03
2023-05-04T00:35:09.041Z,100649.78
2023-05-04T00:35:21.130Z,100644.44
2023-05-04T00:35:32.785Z,100659.69
2023-05-04T00:35:44.560Z,100656.16
2023-05-04T00:35:57.589Z,100646.88
2023-05-04T00:36:09.270Z,100649.34
2023-05-04T00:36:20.940Z,100655.34
2023-05-04T00:36:32.624Z,100652.66
2023-05-04T00:36:44.312Z,100651.84
2023-05-04T00:36:58.145Z,100642.94
2023-05-04T00:37:09.926Z,100651.03
2023-05-04T00:37:21.608Z,100650.16
2023-05-04T00:37:33.302Z,100645.66
2023-05-04T00:37:44.964Z,100649.16
2023-05-04T00:37:56.644Z,100658.03
2023-05-04T00:38:08.351Z,100655.53
2023-05-04T00:38:20.009Z,100659.06
2023-05-04T00:38:31.745Z,100652.03
2023-05-04T00:38:49.690Z,100652.84
2023-05-04T00:39:01.539Z,100651.22
2023-05-04T00:39:13.396Z,100656.75
2023-05-04T00:39:25.090Z,100659.25
2023-05-04T00:39:36.800Z,100652.25
2023-05-04T00:39:48.482Z,100646.88
2023-05-04T00:40:00.219Z,100653.06
2023-05-04T00:40:12.677Z,100653.88
2023-05-04T00:40:24.564Z,100657.41
2023-05-04T00:40:36.305Z,100653.06
2023-05-04T00:40:47.988Z,100660.91
2023-05-04T00:40:59.921Z,100653.06
2023-05-04T00:41:11.584Z,100660.06
2023-05-04T00:41:23.305Z,100654.06
2023-05-04T00:41:35.000Z,100655.94
2023-05-04T00:41:46.825Z,100644.38
2023-05-04T00:41:58.502Z,100656.75
2023-05-04T00:42:10.215Z,100649.75
2023-05-04T00:42:21.904Z,100661.31
2023-05-04T00:42:33.573Z,100652.44
2023-05-04T00:42:45.277Z,100654.28
2023-05-04T00:42:57.108Z,100655.94
2023-05-04T00:43:08.862Z,100655.13
2023-05-04T00:43:20.543Z,100654.06
2023-05-04T00:43:32.255Z,100654.06
2023-05-04T00:43:44.263Z,100651.63
2023-05-04T00:43:55.925Z,100652.25
2023-05-04T00:44:07.644Z,100650.56
2023-05-04T00:44:21.211Z,100652.25
2023-05-04T00:44:32.891Z,100656.75
2023-05-04T00:44:44.581Z,100651.41
2023-05-04T00:44:56.289Z,100656.75
2023-05-04T00:45:08.723Z,100655.94
2023-05-04T00:45:20.338Z,100653.25
2023-05-04T00:45:32.622Z,100645.81
2023-05-04T00:45:44.541Z,100657.81
2023-05-04T00:45:56.277Z,100653.44
2023-05-04T00:46:37.902Z,100656.13
2023-05-04T00:46:49.951Z,100649.75
2023-05-04T00:47:02.673Z,100656.13
2023-05-04T00:47:14.650Z,100659.66
2023-05-04T00:47:26.596Z,100656.97
2023-05-04T00:47:38.450Z,100655.50
2023-05-04T00:47:50.281Z,100653.44
2023-05-04T00:48:02.631Z,100656.13
2023-05-04T00:48:14.903Z,100655.13
2023-05-04T00:48:26.728Z,100652.44
2023-05-04T00:48:38.832Z,100652.63
2023-05-04T00:48:51.939Z,100656.97
2023-05-04T00:49:03.757Z,100649.13
2023-05-04T00:49:15.773Z,100653.44
2023-05-04T00:49:27.505Z,100661.31
2023-05-04T00:49:39.709Z,100655.13
2023-05-04T00:49:52.109Z,100655.31
2023-05-04T00:50:04.790Z,100653.44
2023-05-04T00:50:16.909Z,100648.09
2023-05-04T00:50:29.077Z,100650.75
2023-05-04T00:50:40.835Z,100657.81
2023-05-04T00:50:52.887Z,100645.81
2023-05-04T00:51:06.812Z,100652.81
2023-05-04T00:51:21.120Z,100653.44
2023-05-04T00:51:33.600Z,100650.75
2023-05-04T00:51:45.730Z,100656.97
2023-05-04T00:51:58.615Z,100658.81
2023-05-04T00:52:11.107Z,100660.47
2023-05-04T00:52:24.128Z,100653.44
2023-05-04T00:52:37.090Z,100655.31
2023-05-04T00:52:49.189Z,100665.84
2023-05-04T00:53:07.322Z,100655.13
2023-05-04T00:53:19.101Z,100656.13
2023-05-04T00:53:31.311Z,100656.13
2023-05-04T00:53:43.699Z,100655.94
2023-05-04T00:53:56.152Z,100657.81
2023-05-04T00:54:07.864Z,100655.13
2023-05-04T00:54:19.829Z,100653.66
2023-05-04T00:54:31.823Z,100658.81
2023-05-04T00:54:46.516Z,100656.97
2023-05-04T00:55:00.299Z,100665.22
2023-05-04T00:55:12.494Z,100659.03
2023-05-04T00:55:24.793Z,100658.81
2023-05-04T00:55:39.369Z,100659.66
2023-05-04T00:55:51.217Z,100659.66
2023-05-04T00:56:04.082Z,100656.13
2023-05-04T00:56:16.707Z,100660.66
2023-05-04T00:56:29.668Z,100657.81
2023-05-04T00:56:42.287Z,100659.66
2023-05-04T00:56:54.281Z,100661.50
2023-05-04T00:57:06.423Z,100659.84
2023-05-04T00:57:18.287Z,100654.47
2023-05-04T00:57:30.663Z,100657.34
2023-05-04T00:57:42.478Z,100655.50
2023-05-04T00:57:54.271Z,100653.03
2023-05-04T00:58:06.880Z,100653.66
2023-05-04T00:58:19.054Z,100648.69
2023-05-04T00:58:32.715Z,100655.72
2023-05-04T00:58:45.620Z,100656.53
2023-05-04T00:58:58.002Z,100654.88
2023-05-04T00:59:09.898Z,100653.03
2023-05-04T00:59:21.586Z,100656.53
2023-05-04T00:59:33.292Z,100653.03
2023-05-04T00:59:44.991Z,100656.53
2023-05-04T00:59:56.780Z,100657.34
2023-05-04T01:00:09.439Z,100659.22
2023-05-04T01:00:21.313Z,100655.72
2023-05-04T01:00:32.995Z,100653.03
2023-05-04T01:00:44.858Z,100653.84
2023-05-04T01:00:56.659Z,100653.03
2023-05-04T01:01:08.501Z,100653.84
2023-05-04T01:01:20.747Z,100645.31
2023-05-04T01:01:33.028Z,100646.22
2023-05-04T01:01:44.856Z,100649.72
2023-05-04T01:01:56.572Z,100650.91
2023-05-04T01:02:08.654Z,100651.56
2023-05-04T01:02:20.354Z,100651.56
2023-05-04T01:02:32.252Z,100653.38
2023-05-04T01:02:44.235Z,100650.69
2023-05-04T01:02:55.998Z,100653.38
2023-05-04T01:03:09.704Z,100649.22
2023-05-04T01:03:21.673Z,100647.41
2023-05-04T01:03:34.033Z,100650.91
2023-05-04T01:03:46.025Z,100650.09
2023-05-04T01:03:58.003Z,100651.72
2023-05-04T01:04:10.182Z,100647.41
2023-05-04T01:04:22.830Z,100657.09
2023-05-04T01:04:34.656Z,100655.22
2023-05-04T01:04:46.764Z,100658.75
2023-05-04T01:04:58.458Z,100658.97
2023-05-04T01:05:11.242Z,100653.59
2023-05-04T01:05:29.800Z,100650.09
2023-05-04T01:05:49.005Z,100644.91
2023-05-04T01:06:12.014Z,100651.91
2023-05-04T01:06:34.060Z,100645.91
2023-05-04T01:06:50.084Z,100646.31
2023-05-04T01:07:13.001Z,100651.50
2023-05-04T01:07:33.058Z,100650.47
2023-05-04T01:07:56.044Z,100646.97
2023-05-04T01:08:13.415Z,100658.50
2023-05-04T01:08:30.518Z,100651.28
2023-05-04T01:08:47.328Z,100650.69
2023-05-04T01:09:05.385Z,100648.81
2023-05-04T01:09:28.133Z,100648.81
2023-05-04T01:09:44.694Z,100652.31
2023-05-04T01:10:02.502Z,100653.16
2023-05-04T01:10:22.569Z,100645.31
2023-05-04T01:10:40.020Z,100655.81
2023-05-04T01:10:56.650Z,100647.16
2023-05-04T01:11:11.628Z,100646.50
2023-05-04T01:11:27.786Z,100653.38
2023-05-04T01:11:47.004Z,100647.16
2023-05-04T01:12:05.890Z,100658.72
2023-05-04T01:12:22.237Z,100653.53
2023-05-04T01:12:38.388Z,100650.22
2023-05-04T01:12:56.090Z,100654.56
2023-05-04T01:13:12.076Z,100654.56
2023-05-04T01:13:27.998Z,100653.72
2023-05-04T01:13:40.556Z,100648.38
2023-05-04T01:13:53.711Z,100651.28
2023-05-04T01:14:06.675Z,100652.91
2023-05-04T01:14:20.848Z,100651.28
2023-05-04T01:14:34.078Z,100656.41
2023-05-04T01:14:47.232Z,100654.78
2023-05-04T01:15:00.395Z,100652.91
2023-05-04T01:15:14.016Z,100649.59
2023-05-04T01:15:26.772Z,100653.09
2023-05-04T01:15:40.282Z,100644.22
2023-05-04T01:15:52.357Z,100653.09
2023-05-04T01:16:04.912Z,100651.63
2023-05-04T01:16:16.895Z,100645.06
2023-05-04T01:16:29.015Z,100652.28
2023-05-04T01:16:40.786Z,100648.78
2023-05-04T01:16:58.800Z,100648.59
2023-05-04T01:17:11.841Z,100642.78
2023-05-04T01:17:23.820Z,100648.78
2023-05-04T01:17:35.725Z,100645.06
2023-05-04T01:17:47.569Z,100650.63
2023-05-04T01:17:59.461Z,100651.47
2023-05-04T01:18:11.296Z,100650.41
2023-05-04T01:18:22.972Z,100645.06
2023-05-04T01:18:34.796Z,100645.28
2023-05-04T01:18:46.490Z,100650.41
2023-05-04T01:18:58.303Z,100650.63
2023-05-04T01:19:10.752Z,100646.09
2023-05-04T01:19:22.583Z,100648.78
2023-05-04T01:19:34.892Z,100642.78
2023-05-04T01:19:48.760Z,100650.41
2023-05-04T01:20:00.541Z,100657.63
2023-05-04T01:20:12.333Z,100650.63
2023-05-04T01:20:24.205Z,100651.47
2023-05-04T01:20:36.105Z,100651.63
2023-05-04T01:20:47.795Z,100648.97
2023-05-04T01:20:59.495Z,100649.78
2023-05-04T01:21:12.568Z,100651.63
2023-05-04T01:21:24.277Z,100651.63
2023-05-04T01:21:37.329Z,100646.50
2023-05-04T01:21:49.065Z,100653.50
2023-05-04T01:22:01.048Z,100650.19
2023-05-04T01:22:12.704Z,100653.91
2023-05-04T01:22:24.443Z,100656.59
2023-05-04T01:22:37.133Z,100652.88
2023-05-04T01:22:48.928Z,100653.91
2023-05-04T01:23:01.244Z,100648.72
2023-05-04T01:23:13.333Z,100647.28
2023-05-04T01:23:25.448Z,100658.41
2023-05-04T01:23:37.248Z,100653.28
2023-05-04T01:23:49.050Z,100647.91
2023-05-04T01:24:02.579Z,100650.59
2023-05-04T01:24:14.674Z,100650.97
2023-05-04T01:24:27.739Z,100649.94
2023-05-04T01:24:39.634Z,100653.28
2023-05-04T01:24:52.031Z,100650.78
2023-05-04T01:25:04.934Z,100647.06
2023-05-04T01:25:16.703Z,100643.78
2023-05-04T01:25:32.947Z,100651.81
2023-05-04T01:25:49.686Z,100651.59
2023-05-04T01:26:06.909Z,100649.13
2023-05-04T01:26:24.375Z,100648.28
2023-05-04T01:26:39.354Z,100646.44
2023-05-04T01:26:56.292Z,100650.97
2023-05-04T01:27:11.503Z,100654.50
2023-05-04T01:27:26.275Z,100650.13
2023-05-04T01:27:42.622Z,100648.50
2023-05-04T01:28:02.649Z,100651.19
2023-05-04T01:28:19.387Z,100649.50
2023-05-04T01:28:38.820Z,100647.84
2023-05-04T01:28:56.196Z,100642.28
2023-05-04T01:29:14.293Z,100655.69
2023-05-04T01:29:32.710Z,100644.97
2023-05-04T01:29:50.924Z,100651.75
2023-05-04T01:30:08.515Z,100643.09
2023-05-04T01:30:25.932Z,100649.91
2023-05-04T01:30:40.845Z,100650.72
2023-05-04T01:30:57.626Z,100650.72
2023-05-04T01:31:13.792Z,100647.22
2023-05-04T01:31:27.649Z,100650.72
2023-05-04T01:31:40.321Z,100649.91
2023-05-04T01:31:53.209Z,100648.22
2023-05-04T01:32:06.569Z,100647.63
2023-05-04T01:32:19.288Z,100654.44
2023-05-04T01:32:32.419Z,100651.75
2023-05-04T01:32:45.330Z,100648.22
2023-05-04T01:32:58.530Z,100644.72
2023-05-04T01:33:11.073Z,100645.78
2023-05-04T01:33:23.338Z,100651.13
2023-05-04T01:33:36.452Z,100649.09
2023-05-04T01:33:53.210Z,100652.78
2023-05-04T01:34:06.656Z,100656.50
2023-05-04T01:34:19.809Z,100649.28
2023-05-04T01:34:31.491Z,100644.72
2023-05-04T01:34:43.239Z,100649.28
2023-05-04T01:34:55.243Z,100651.31
2023-05-04T01:35:08.201Z,100647.81
2023-05-04T01:35:20.137Z,100653.81
2023-05-04T01:35:32.085Z,100654.81
2023-05-04T01:35:44.558Z,100651.31
2023-05-04T01:35:56.570Z,100650.50
2023-05-04T01:36:11.034Z,100651.50
2023-05-04T01:36:23.658Z,100653.19
2023-05-04T01:36:37.426Z,100648.63
2023-05-04T01:36:49.638Z,100648.22
2023-05-04T01:37:01.799Z,100648.81
2023-05-04T01:37:14.621Z,100648.00
2023-05-04T01:37:26.788Z,100657.72
2023-05-04T01:37:38.558Z,100658.72
2023-05-04T01:37:50.218Z,100650.69
2023-05-04T01:38:03.747Z,100648.00
2023-05-04T01:38:15.515Z,100651.50
2023-05-04T01:38:27.832Z,100647.19
2023-05-04T01:38:39.502Z,100656.84
2023-05-04T01:38:53.790Z,100653.56
2023-05-04T01:39:05.529Z,100650.88
2023-05-04T01:39:18.251Z,100652.53
2023-05-04T01:39:30.002Z,100655.41
2023-05-04T01:39:41.659Z,100651.91
2023-05-04T01:39:53.307Z,100650.25
2023-05-04T01:40:06.290Z,100647.34
2023-05-04T01:40:18.176Z,100649.41
2023-05-04T01:40:29.987Z,100650.25
2023-05-04T01:40:41.686Z,100659.94
2023-05-04T01:40:53.363Z,100646.09
2023-05-04T01:41:05.204Z,100647.75
2023-05-04T01:41:16.960Z,100651.44
2023-05-04T01:41:28.635Z,100648.75
2023-05-04T01:41:40.358Z,100644.44
2023-05-04T01:41:52.790Z,100654.97
2023-05-04T01:42:04.700Z,100651.44
2023-05-04T01:42:16.504Z,100647.94
2023-05-04T01:42:28.692Z,100643.63
2023-05-04T01:42:40.390Z,100649.81
2023-05-04T01:42:52.061Z,100648.16
2023-05-04T01:43:03.805Z,100650.84
2023-05-04T01:43:16.371Z,100650.00
2023-05-04T01:43:28.062Z,100646.66
2023-05-04T01:43:39.777Z,100649.16
2023-05-04T01:43:51.504Z,100644.84
2023-05-04T01:44:03.943Z,100645.84
2023-05-04T01:44:15.666Z,100646.66
2023-05-04T01:44:27.436Z,100644.84
2023-05-04T01:44:39.582Z,100648.53
2023-05-04T01:44:51.223Z,100649.34
2023-05-04T01:45:03.008Z,100646.66
2023-05-04T01:45:14.725Z,100638.41
2023-05-04T01:45:26.512Z,100647.88
2023-05-04T01:45:38.238Z,100640.69
2023-05-04T01:45:50.162Z,100640.88
2023-05-04T01:46:01.935Z,100637.38
2023-05-04T01:46:13.821Z,100639.84
2023-05-04T01:46:25.639Z,100643.75
2023-05-04T01:46:37.629Z,100636.75
2023-05-04T01:46:49.502Z,100646.25
2023-05-04T01:47:01.222Z,100647.25
2023-05-04T01:47:12.946Z,100648.94
2023-05-04T01:47:24.745Z,100641.28
2023-05-04T01:47:36.589Z,100644.56
2023-05-04T01:47:48.406Z,100637.75
2023-05-04T01:48:00.232Z,100645.59
2023-05-04T01:48:11.935Z,100647.47
2023-05-04T01:48:23.658Z,100639.44
2023-05-04T01:48:35.375Z,100641.28
2023-05-04T01:48:47.145Z,100643.97
2023-05-04T01:48:59.155Z,100641.28
2023-05-04T01:49:10.817Z,100642.13
2023-05-04T01:49:22.565Z,100645.59
2023-05-04T01:49:34.939Z,100641.28
2023-05-04T01:49:46.617Z,100645.78
2023-05-04T01:49:58.326Z,100644.97
2023-05-04T01:50:10.355Z,100650.16
2023-05-04T01:50:23.020Z,100640.84
2023-05-04T01:50:34.688Z,100639.78
2023-05-04T01:50:47.211Z,100645.16
2023-05-04T01:50:58.873Z,100642.47
2023-05-04T01:51:10.685Z,100641.66
2023-05-04T01:51:22.397Z,100637.34
2023-05-04T01:51:35.240Z,100639.19
2023-05-04T01:51:48.296Z,100636.50
2023-05-04T01:52:00.062Z,100640.19
2023-05-04T01:52:11.764Z,100634.84
2023-05-04T01:52:23.482Z,100636.69
2023-05-04T01:52:35.749Z,100634.84
2023-05-04T01:52:47.509Z,100633.84
2023-05-04T01:52:59.194Z,100641.03
2023-05-04T01:53:10.866Z,100641.03
2023-05-04T01:53:22.546Z,100641.88
2023-05-04T01:53:34.309Z,100641.03
2023-05-04T01:53:46.042Z,100638.34
2023-05-04T01:54:18.802Z,100637.69
2023-05-04T01:54:30.527Z,100633.19
2023-05-04T01:54:42.510Z,100634.19
2023-05-04T01:54:54.269Z,100639.56
2023-05-04T01:55:06.372Z,100643.06
2023-05-04T01:55:18.388Z,100638.75
2023-05-04T01:55:30.230Z,100637.91
2023-05-04T01:55:42.028Z,100636.06
2023-05-04T01:55:53.779Z,100641.41
2023-05-04T01:56:07.098Z,100632.56
2023-05-04T01:56:19.191Z,100634.41
2023-05-04T01:56:30.995Z,100638.75
2023-05-04T01:56:42.778Z,100637.09
2023-05-04T01:56:54.511Z,100637.91
2023-05-04T01:57:06.249Z,100637.91
2023-05-04T01:57:18.021Z,100638.75
2023-05-04T01:57:29.789Z,100634.41
2023-05-04T01:57:41.543Z,100633.56
2023-05-04T01:57:53.315Z,100635.22
2023-05-04T01:58:05.081Z,100629.06
2023-05-04T01:58:17.972Z,100630.06
2023-05-04T01:58:29.685Z,100637.09
2023-05-04T01:58:41.707Z,100638.09
2023-05-04T01:58:53.939Z,100635.41
2023-05-04T01:59:05.701Z,100631.91
2023-05-04T01:59:17.428Z,100632.75
2023-05-04T01:59:29.176Z,100637.28
2023-05-04T01:59:40.831Z,100637.28
2023-05-04T01:59:53.220Z,100631.09
2023-05-04T02:00:06.132Z,100633.78
2023-05-04T02:00:28.540Z,100631.09
2023-05-04T02:00:40.292Z,100635.59
2023-05-04T02:00:52.133Z,100638.28
2023-05-04T02:01:03.965Z,100636.63
2023-05-04T02:01:15.799Z,100635.59
2023-05-04T02:01:27.612Z,100632.09
2023-05-04T02:01:39.487Z,100640.13
2023-05-04T02:01:51.220Z,100624.06
2023-05-04T02:02:03.127Z,100633.13
2023-05-04T02:02:15.150Z,100630.47
2023-05-04T02:02:26.943Z,100631.28
2023-05-04T02:02:38.814Z,100633.97
2023-05-04T02:02:50.718Z,100632.28
2023-05-04T02:03:04.514Z,100636.63
2023-05-04T02:03:17.440Z,100629.59
2023-05-04T02:03:29.293Z,100631.47
2023-05-04T02:03:41.283Z,100631.28
2023-05-04T02:03:54.921Z,100627.97
2023-05-04T02:04:06.853Z,100631.47
2023-05-04T02:04:18.630Z,100632.28
2023-05-04T02:04:30.415Z,100627.97
2023-05-04T02:04:43.112Z,100627.13
2023-05-04T02:04:54.894Z,100629.81
2023-05-04T02:05:07.249Z,100627.97
2023-05-04T02:05:18.957Z,100627.13
2023-05-04T02:05:30.729Z,100630.63
2023-05-04T02:05:42.491Z,100629.81
2023-05-04T02:05:54.280Z,100627.97
2023-05-04T02:06:06.026Z,100627.31
2023-05-04T02:06:17.765Z,100627.13
2023-05-04T02:06:29.613Z,100635.19
2023-05-04T02:06:42.280Z,100632.69
2023-05-04T02:06:55.437Z,100625.47
2023-05-04T02:07:07.657Z,100630.00
2023-05-04T02:07:19.348Z,100627.31
2023-05-04T02:07:31.152Z,100627.31
2023-05-04T02:07:42.895Z,100627.31
2023-05-04T02:07:54.626Z,100628.16
2023-05-04T02:08:18.422Z,100627.31
2023-05-04T02:08:30.204Z,100634.34
2023-05-04T02:08:42.599Z,100632.50
2023-05-04T02:08:54.417Z,100627.97
2023-05-04T02:09:06.132Z,100628.16
2023-05-04T02:09:17.933Z,100627.13
2023-05-04T02:09:29.629Z,100632.50
2023-05-04T02:09:41.455Z,100627.13
2023-05-04T02:09:53.140Z,100631.69
2023-05-04T02:10:08.406Z,100629.00
2023-05-04T02:10:20.179Z,100632.69
2023-05-04T02:10:32.618Z,100631.84
2023-05-04T02:10:44.451Z,100634.53
2023-05-04T02:10:56.160Z,100636.41
2023-05-04T02:11:08.914Z,100630.19
2023-05-04T02:11:20.671Z,100632.88
2023-05-04T02:11:32.725Z,100631.22
2023-05-04T02:11:44.517Z,100632.88
2023-05-04T02:11:56.199Z,100628.53
2023-05-04T02:12:09.320Z,100642.75
2023-05-04T02:12:21.424Z,100635.75
2023-05-04T02:12:33.238Z,100636.59
2023-05-04T02:12:45.051Z,100635.75
2023-05-04T02:12:56.818Z,100636.59
2023-05-04T02:13:08.634Z,100631.22
2023-05-04T02:13:20.414Z,100633.09
2023-05-04T02:13:32.142Z,100630.41
2023-05-04T02:13:43.861Z,100633.09
2023-05-04T02:13:56.548Z,100640.06
2023-05-04T02:14:08.334Z,100630.41
2023-05-04T02:14:20.066Z,100633.91
2023-05-04T02:14:31.784Z,100635.75
2023-05-04T02:14:43.484Z,100624.22
2023-05-04T02:14:55.261Z,100630.41
2023-05-04T02:15:07.991Z,100635.75
2023-05-04T02:15:19.919Z,100633.09
2023-05-04T02:15:31.799Z,100635.75
2023-05-04T02:15:43.597Z,100639.25
2023-05-04T02:15:55.536Z,100641.94
2023-05-04T02:16:07.837Z,100636.75
2023-05-04T02:16:19.718Z,100635.75
2023-05-04T02:16:31.477Z,100636.75
2023-05-04T02:16:43.507Z,100630.59
2023-05-04T02:16:56.746Z,100635.94
2023-05-04T02:17:09.101Z,100642.34
2023-05-04T02:17:22.170Z,100642.13
2023-05-04T02:17:33.972Z,100638.63
2023-05-04T02:17:45.809Z,100635.94
2023-05-04T02:17:57.654Z,100630.75
2023-05-04T02:18:09.453Z,100636.97
2023-05-04T02:18:21.166Z,100635.94
2023-05-04T02:18:33.942Z,100636.75
2023-05-04T02:18:45.773Z,100641.31
2023-05-04T02:18:57.524Z,100630.59
2023-05-04T02:19:09.292Z,100639.44
2023-05-04T02:19:21.011Z,100631.41
2023-05-04T02:19:32.716Z,100637.63
2023-05-04T02:19:44.488Z,100633.09
2023-05-04T02:19:56.213Z,100634.94
2023-05-04T02:20:09.434Z,100642.13
2023-05-04T02:20:21.152Z,100633.09
2023-05-04T02:20:32.967Z,100637.63
2023-05-04T02:20:44.766Z,100641.94
2023-05-04T02:20:59.474Z,100644.81
2023-05-04T02:21:11.247Z,100635.75
2023-05-04T02:21:22.956Z,100633.09
2023-05-04T02:21:34.982Z,100638.44
2023-05-04T02:21:47.669Z,100638.44
2023-05-04T02:22:00.814Z,100635.75
2023-05-04T02:22:12.618Z,100639.25
2023-05-04T02:22:24.459Z,100639.25
2023-05-04T02:22:37.873Z,100632.88
2023-05-04T02:22:49.666Z,100640.91
2023-05-04T02:23:03.456Z,100635.53
2023-05-04T02:23:15.196Z,100641.75
2023-05-04T02:23:27.029Z,100639.25
2023-05-04T02:23:38.746Z,100646.25
2023-05-04T02:23:50.460Z,100638.22